PWSweather.com
Personal Weather Stations
Station Observations
COSTA1
Volpino, Costa VolpinoIT 24062

VolpinoCosta VolpinoIT 24062

Lat: 45.8355974, Lon: 10.0931398

Elevation: 1182

Station Type: vantage pro2

https://www.costavolpinowebcam.it

Latest ConditionsUpdated 2:12:55 PM GMT+01:01 Tuesday, Nov 12, 2019
Currently Today's Max Today's Min Today's Average
Temperature 49.3°F9.6°C 49.3°F9.6°C 43.3°F6.3°C 45.0°F7.2°C
Dew Point 44.4°F6.9°C 44.4°F6.9°C 40.1°F4.5°C 41.6°F5.3°C
Winds 0.9 mph ENE1.4 kmh ENE 2.9 mph -4.7 kmh - - 0.2 mph 0.3 kmh
Wind Gusts 2.0 mph3.2 kmh 6.0 mph9.7 kmh - -
Humidity 83% 89% 82% 88%
Pressure 29.53 in1000.0 mb 29.79 in1008.8 mb 29.52 in999.7 mb -
Precipitation - 0.33 in8.4 mm - -
Hour Temp Dew Point Humidity Winds Wind Gusts Pressure Precip Precip Rate Daily Precip Total
02:12 PM 49.3°F9.6°C 44.4°F6.9°C 83% 0.9 mph ENE1.4 kmh ENE 2.0 mph3.2 kmh 29.53 in1000.0 mb 0.00 in0.0 mm 0.00 in0.0 mm 0.33 in8.4 mm
02:07 PM 48.9°F9.4°C 43.7°F6.5°C 82% Calm Calm 2.0 mph3.2 kmh 29.53 in1000.0 mb 0.00 in0.0 mm 0.00 in0.0 mm 0.33 in8.4 mm
02:02 PM 48.7°F9.3°C 43.5°F6.4°C 82% Calm Calm 0.9 mph1.4 kmh 29.52 in999.7 mb 0.00 in0.0 mm 0.00 in0.0 mm 0.33 in8.4 mm
01:57 PM 48.7°F9.3°C 43.9°F6.6°C 83% Calm Calm -- 29.53 in1000.0 mb 0.00 in0.0 mm 0.00 in0.0 mm 0.33 in8.4 mm
01:52 PM 48.7°F9.3°C 44.1°F6.7°C 84% Calm Calm -- 29.53 in1000.0 mb 0.00 in0.0 mm 0.00 in0.0 mm 0.33 in8.4 mm
01:47 PM 48.6°F9.2°C 43.3°F6.3°C 82% 0.9 mph ENE1.4 kmh ENE 2.0 mph3.2 kmh 29.53 in1000.0 mb 0.00 in0.0 mm 0.00 in0.0 mm 0.33 in8.4 mm
01:42 PM 48.6°F9.2°C 43.7°F6.5°C 83% 0.9 mph ENE1.4 kmh ENE 2.0 mph3.2 kmh 29.54 in1000.3 mb 0.00 in0.0 mm 0.00 in0.0 mm 0.33 in8.4 mm
01:37 PM 48.4°F9.1°C 43.5°F6.4°C 83% Calm Calm 4.9 mph7.9 kmh 29.54 in1000.3 mb 0.00 in0.0 mm 0.00 in0.0 mm 0.33 in8.4 mm
01:32 PM 48.2°F9.0°C 43.9°F6.6°C 85% Calm Calm -- 29.54 in1000.3 mb 0.00 in0.0 mm 0.00 in0.0 mm 0.33 in8.4 mm
01:27 PM 48.0°F8.9°C 43.3°F6.3°C 84% Calm Calm -- 29.54 in1000.3 mb 0.00 in0.0 mm 0.00 in0.0 mm 0.33 in8.4 mm
01:22 PM 48.0°F8.9°C 43.3°F6.3°C 84% Calm Calm -- 29.55 in1000.7 mb 0.00 in0.0 mm 0.00 in0.0 mm 0.33 in8.4 mm
01:17 PM 48.0°F8.9°C 43.2°F6.2°C 83% Calm Calm 2.0 mph3.2 kmh 29.55 in1000.7 mb 0.00 in0.0 mm 0.00 in0.0 mm 0.33 in8.4 mm
01:12 PM 48.0°F8.9°C 43.3°F6.3°C 84% Calm Calm 0.9 mph1.4 kmh 29.56 in1001.0 mb 0.00 in0.0 mm 0.00 in0.0 mm 0.33 in8.4 mm
01:06 PM 47.8°F8.8°C 43.5°F6.4°C 85% Calm Calm 0.9 mph1.4 kmh 29.56 in1001.0 mb 0.00 in0.0 mm 0.00 in0.0 mm 0.33 in8.4 mm
01:01 PM 47.8°F8.8°C 43.9°F6.6°C 86% Calm Calm 2.0 mph3.2 kmh 29.56 in1001.0 mb 0.00 in0.0 mm 0.00 in0.0 mm 0.33 in8.4 mm
12:56 PM 47.7°F8.7°C 43.7°F6.5°C 86% Calm Calm 0.9 mph1.4 kmh 29.57 in1001.4 mb 0.00 in0.0 mm 0.00 in0.0 mm 0.33 in8.4 mm
12:51 PM 47.7°F8.7°C 44.1°F6.7°C 87% Calm Calm 0.9 mph1.4 kmh 29.57 in1001.4 mb 0.00 in0.0 mm 0.00 in0.0 mm 0.33 in8.4 mm
12:46 PM 47.7°F8.7°C 43.7°F6.5°C 86% Calm Calm 2.0 mph3.2 kmh 29.57 in1001.4 mb 0.00 in0.0 mm 0.00 in0.0 mm 0.33 in8.4 mm
12:41 PM 47.7°F8.7°C 43.7°F6.5°C 86% Calm Calm 0.9 mph1.4 kmh 29.58 in1001.7 mb 0.00 in0.0 mm 0.00 in0.0 mm 0.33 in8.4 mm
12:36 PM 47.8°F8.8°C 43.9°F6.6°C 86% Calm Calm 0.9 mph1.4 kmh 29.57 in1001.4 mb 0.00 in0.0 mm 0.00 in0.0 mm 0.33 in8.4 mm
12:31 PM 47.7°F8.7°C 44.1°F6.7°C 87% Calm Calm 0.9 mph1.4 kmh 29.58 in1001.7 mb 0.00 in0.0 mm 0.00 in0.0 mm 0.33 in8.4 mm
12:26 PM 47.5°F8.6°C 43.5°F6.4°C 86% Calm Calm 0.9 mph1.4 kmh 29.58 in1001.7 mb 0.00 in0.0 mm 0.00 in0.0 mm 0.33 in8.4 mm
12:21 PM 47.5°F8.6°C 43.2°F6.2°C 85% Calm Calm -- 29.59 in1002.0 mb 0.00 in0.0 mm 0.00 in0.0 mm 0.33 in8.4 mm
12:16 PM 47.5°F8.6°C 43.2°F6.2°C 85% Calm Calm -- 29.59 in1002.0 mb 0.00 in0.0 mm 0.00 in0.0 mm 0.33 in8.4 mm
12:11 PM 47.7°F8.7°C 43.3°F6.3°C 85% 0.9 mph S1.4 kmh S 0.9 mph1.4 kmh 29.60 in1002.4 mb 0.00 in0.0 mm 0.00 in0.0 mm 0.33 in8.4 mm
12:06 PM 47.7°F8.7°C 43.0°F6.1°C 84% 0.9 mph S1.4 kmh S 2.0 mph3.2 kmh 29.60 in1002.4 mb 0.00 in0.0 mm 0.00 in0.0 mm 0.33 in8.4 mm
12:01 PM 47.8°F8.8°C 43.2°F6.2°C 84% 0.9 mph S1.4 kmh S 2.0 mph3.2 kmh 29.60 in1002.4 mb 0.00 in0.0 mm 0.00 in0.0 mm 0.33 in8.4 mm
11:56 AM 47.7°F8.7°C 43.3°F6.3°C 85% 0.9 mph S1.4 kmh S 2.0 mph3.2 kmh 29.60 in1002.4 mb 0.00 in0.0 mm 0.00 in0.0 mm 0.33 in8.4 mm
11:51 AM 47.5°F8.6°C 43.5°F6.4°C 86% Calm Calm 2.0 mph3.2 kmh 29.60 in1002.4 mb 0.00 in0.0 mm 0.00 in0.0 mm 0.33 in8.4 mm
11:46 AM 47.3°F8.5°C 43.0°F6.1°C 85% Calm Calm 2.0 mph3.2 kmh 29.60 in1002.4 mb 0.00 in0.0 mm 0.00 in0.0 mm 0.33 in8.4 mm
11:41 AM 46.9°F8.3°C 43.0°F6.1°C 86% Calm Calm 0.9 mph1.4 kmh 29.61 in1002.7 mb 0.00 in0.0 mm 0.00 in0.0 mm 0.33 in8.4 mm
11:35 AM 46.9°F8.3°C 42.6°F5.9°C 85% Calm Calm 0.9 mph1.4 kmh 29.61 in1002.7 mb 0.00 in0.0 mm 0.00 in0.0 mm 0.33 in8.4 mm
11:30 AM 47.1°F8.4°C 43.2°F6.2°C 86% Calm Calm 0.9 mph1.4 kmh 29.61 in1002.7 mb 0.00 in0.0 mm 0.00 in0.0 mm 0.33 in8.4 mm
11:25 AM 46.9°F8.3°C 43.3°F6.3°C 87% 0.9 mph E1.4 kmh E 2.9 mph4.7 kmh 29.60 in1002.4 mb 0.00 in0.0 mm 0.00 in0.0 mm 0.33 in8.4 mm
11:20 AM 47.1°F8.4°C 43.7°F6.5°C 88% Calm Calm 3.0 mph4.8 kmh 29.60 in1002.4 mb 0.00 in0.0 mm 0.00 in0.0 mm 0.33 in8.4 mm
11:15 AM 46.8°F8.2°C 43.3°F6.3°C 88% Calm Calm -- 29.60 in1002.4 mb 0.00 in0.0 mm 0.00 in0.0 mm 0.33 in8.4 mm
11:10 AM 46.4°F8.0°C 42.8°F6.0°C 87% Calm Calm -- 29.61 in1002.7 mb 0.00 in0.0 mm 0.00 in0.0 mm 0.33 in8.4 mm
11:05 AM 46.2°F7.9°C 42.3°F5.7°C 86% Calm Calm 0.9 mph1.4 kmh 29.62 in1003.0 mb 0.00 in0.0 mm 0.00 in0.0 mm 0.33 in8.4 mm
11:00 AM 46.0°F7.8°C 42.1°F5.6°C 86% Calm Calm 0.9 mph1.4 kmh 29.62 in1003.0 mb 0.00 in0.0 mm 0.00 in0.0 mm 0.33 in8.4 mm
10:55 AM 46.0°F7.8°C 42.4°F5.8°C 87% Calm Calm 0.9 mph1.4 kmh 29.63 in1003.4 mb 0.00 in0.0 mm 0.00 in0.0 mm 0.33 in8.4 mm
10:50 AM 46.0°F7.8°C 42.6°F5.9°C 88% Calm Calm -- 29.63 in1003.4 mb 0.00 in0.0 mm 0.00 in0.0 mm 0.33 in8.4 mm
10:45 AM 45.9°F7.7°C 42.4°F5.8°C 88% Calm Calm 0.9 mph1.4 kmh 29.63 in1003.4 mb 0.00 in0.0 mm 0.00 in0.0 mm 0.33 in8.4 mm
10:40 AM 45.9°F7.7°C 42.4°F5.8°C 88% Calm Calm 2.0 mph3.2 kmh 29.63 in1003.4 mb 0.00 in0.0 mm 0.00 in0.0 mm 0.33 in8.4 mm
10:35 AM 45.7°F7.6°C 42.1°F5.6°C 87% Calm Calm 0.9 mph1.4 kmh 29.63 in1003.4 mb 0.01 in0.3 mm 0.00 in0.0 mm 0.33 in8.4 mm
10:30 AM 45.7°F7.6°C 42.1°F5.6°C 87% Calm Calm 0.9 mph1.4 kmh 29.64 in1003.7 mb 0.01 in0.3 mm 0.00 in0.0 mm 0.33 in8.4 mm
10:25 AM 45.5°F7.5°C 42.1°F5.6°C 88% Calm Calm 0.9 mph1.4 kmh 29.65 in1004.1 mb 0.01 in0.3 mm 0.00 in0.0 mm 0.33 in8.4 mm
10:20 AM 45.3°F7.4°C 41.9°F5.5°C 88% Calm Calm 0.9 mph1.4 kmh 29.65 in1004.1 mb 0.01 in0.3 mm 0.00 in0.0 mm 0.33 in8.4 mm
10:15 AM 45.1°F7.3°C 41.7°F5.4°C 88% 0.9 mph E1.4 kmh E 2.0 mph3.2 kmh 29.65 in1004.1 mb 0.01 in0.3 mm 0.00 in0.0 mm 0.33 in8.4 mm
10:10 AM 45.1°F7.3°C 41.5°F5.3°C 87% Calm Calm 2.0 mph3.2 kmh 29.65 in1004.1 mb 0.01 in0.3 mm 0.00 in0.0 mm 0.33 in8.4 mm
10:05 AM 45.0°F7.2°C 41.4°F5.2°C 87% Calm Calm 0.9 mph1.4 kmh 29.66 in1004.4 mb 0.01 in0.3 mm 0.00 in0.0 mm 0.33 in8.4 mm
10:00 AM 45.1°F7.3°C 41.5°F5.3°C 87% 0.9 mph E1.4 kmh E 2.0 mph3.2 kmh 29.66 in1004.4 mb 0.01 in0.3 mm 0.00 in0.0 mm 0.33 in8.4 mm
09:55 AM 45.1°F7.3°C 41.5°F5.3°C 87% 0.9 mph E1.4 kmh E 0.9 mph1.4 kmh 29.66 in1004.4 mb 0.01 in0.3 mm 0.00 in0.0 mm 0.33 in8.4 mm
09:50 AM 45.3°F7.4°C 41.9°F5.5°C 88% Calm Calm 2.0 mph3.2 kmh 29.66 in1004.4 mb 0.01 in0.3 mm 0.00 in0.0 mm 0.33 in8.4 mm
09:45 AM 45.3°F7.4°C 41.9°F5.5°C 88% Calm Calm 0.9 mph1.4 kmh 29.66 in1004.4 mb 0.01 in0.3 mm 0.00 in0.0 mm 0.33 in8.4 mm
09:40 AM 45.1°F7.3°C 42.1°F5.6°C 89% Calm Calm 0.9 mph1.4 kmh 29.66 in1004.4 mb 0.01 in0.3 mm 0.12 in3.0 mm 0.33 in8.4 mm
09:35 AM 45.1°F7.3°C 41.7°F5.4°C 88% Calm Calm 2.9 mph4.7 kmh 29.66 in1004.4 mb 0.00 in0.0 mm 0.00 in0.0 mm 0.32 in8.1 mm
09:30 AM 45.0°F7.2°C 41.5°F5.3°C 88% Calm Calm 2.9 mph4.7 kmh 29.66 in1004.4 mb 0.00 in0.0 mm 0.00 in0.0 mm 0.32 in8.1 mm
09:24 AM 45.0°F7.2°C 41.5°F5.3°C 88% 0.9 mph E1.4 kmh E 0.9 mph1.4 kmh 29.66 in1004.4 mb 0.00 in0.0 mm 0.00 in0.0 mm 0.32 in8.1 mm
09:19 AM 45.0°F7.2°C 41.9°F5.5°C 89% 0.9 mph E1.4 kmh E 4.9 mph7.9 kmh 29.66 in1004.4 mb 0.00 in0.0 mm 0.00 in0.0 mm 0.32 in8.1 mm
09:14 AM 45.0°F7.2°C 41.9°F5.5°C 89% Calm Calm 0.9 mph1.4 kmh 29.66 in1004.4 mb 0.00 in0.0 mm 0.00 in0.0 mm 0.32 in8.1 mm
09:09 AM 45.0°F7.2°C 41.9°F5.5°C 89% Calm Calm 0.9 mph1.4 kmh 29.66 in1004.4 mb 0.00 in0.0 mm 0.00 in0.0 mm 0.32 in8.1 mm
09:04 AM 45.0°F7.2°C 41.9°F5.5°C 89% Calm Calm 2.0 mph3.2 kmh 29.65 in1004.1 mb 0.00 in0.0 mm 0.00 in0.0 mm 0.32 in8.1 mm
08:59 AM 44.8°F7.1°C 41.7°F5.4°C 89% Calm Calm 2.0 mph3.2 kmh 29.66 in1004.4 mb 0.00 in0.0 mm 0.00 in0.0 mm 0.32 in8.1 mm
08:54 AM 45.0°F7.2°C 41.9°F5.5°C 89% Calm Calm 2.0 mph3.2 kmh 29.65 in1004.1 mb 0.00 in0.0 mm 0.00 in0.0 mm 0.32 in8.1 mm
08:49 AM 44.8°F7.1°C 41.7°F5.4°C 89% Calm Calm 0.9 mph1.4 kmh 29.66 in1004.4 mb 0.00 in0.0 mm 0.00 in0.0 mm 0.32 in8.1 mm
08:44 AM 44.8°F7.1°C 41.7°F5.4°C 89% Calm Calm 0.9 mph1.4 kmh 29.66 in1004.4 mb 0.00 in0.0 mm 0.00 in0.0 mm 0.32 in8.1 mm
08:39 AM 44.6°F7.0°C 41.5°F5.3°C 89% Calm Calm 0.9 mph1.4 kmh 29.66 in1004.4 mb 0.00 in0.0 mm 0.00 in0.0 mm 0.32 in8.1 mm
08:34 AM 44.4°F6.9°C 41.4°F5.2°C 89% Calm Calm 0.9 mph1.4 kmh 29.66 in1004.4 mb 0.00 in0.0 mm 0.00 in0.0 mm 0.32 in8.1 mm
08:29 AM 44.2°F6.8°C 41.2°F5.1°C 89% Calm Calm 0.9 mph1.4 kmh 29.66 in1004.4 mb 0.00 in0.0 mm 0.00 in0.0 mm 0.32 in8.1 mm
08:24 AM 44.2°F6.8°C 41.0°F5.0°C 88% 0.9 mph SW1.4 kmh SW 2.0 mph3.2 kmh 29.66 in1004.4 mb 0.00 in0.0 mm 0.00 in0.0 mm 0.32 in8.1 mm
08:19 AM 44.2°F6.8°C 41.0°F5.0°C 88% 0.9 mph SW1.4 kmh SW 2.0 mph3.2 kmh 29.66 in1004.4 mb 0.00 in0.0 mm 0.00 in0.0 mm 0.32 in8.1 mm
08:14 AM 44.2°F6.8°C 41.2°F5.1°C 89% Calm Calm 1.0 mph1.6 kmh 29.66 in1004.4 mb 0.00 in0.0 mm 0.00 in0.0 mm 0.32 in8.1 mm
08:09 AM 44.2°F6.8°C 41.2°F5.1°C 89% Calm Calm 0.9 mph1.4 kmh 29.67 in1004.7 mb 0.00 in0.0 mm 0.00 in0.0 mm 0.32 in8.1 mm
08:04 AM 44.2°F6.8°C 41.2°F5.1°C 89% Calm Calm 0.9 mph1.4 kmh 29.67 in1004.7 mb 0.00 in0.0 mm 0.00 in0.0 mm 0.32 in8.1 mm
07:59 AM 44.2°F6.8°C 41.2°F5.1°C 89% Calm Calm 0.9 mph1.4 kmh 29.67 in1004.7 mb 0.00 in0.0 mm 0.00 in0.0 mm 0.32 in8.1 mm
07:54 AM 44.2°F6.8°C 41.2°F5.1°C 89% Calm Calm 0.9 mph1.4 kmh 29.67 in1004.7 mb 0.00 in0.0 mm 0.00 in0.0 mm 0.32 in8.1 mm
07:49 AM 44.1°F6.7°C 41.0°F5.0°C 89% Calm Calm 2.0 mph3.2 kmh 29.67 in1004.7 mb 0.00 in0.0 mm 0.00 in0.0 mm 0.32 in8.1 mm
07:44 AM 44.1°F6.7°C 41.0°F5.0°C 89% Calm Calm -- 29.67 in1004.7 mb 0.01 in0.3 mm 0.00 in0.0 mm 0.32 in8.1 mm
07:39 AM 44.1°F6.7°C 41.0°F5.0°C 89% Calm Calm 0.9 mph1.4 kmh 29.67 in1004.7 mb 0.01 in0.3 mm 0.00 in0.0 mm 0.32 in8.1 mm
07:34 AM 44.1°F6.7°C 41.0°F5.0°C 89% Calm Calm -- 29.67 in1004.7 mb 0.01 in0.3 mm 0.00 in0.0 mm 0.32 in8.1 mm
07:29 AM 44.1°F6.7°C 41.0°F5.0°C 89% 0.9 mph SW1.4 kmh SW 0.9 mph1.4 kmh 29.67 in1004.7 mb 0.01 in0.3 mm 0.00 in0.0 mm 0.32 in8.1 mm
07:24 AM 44.1°F6.7°C 41.0°F5.0°C 89% 0.9 mph SW1.4 kmh SW 2.0 mph3.2 kmh 29.67 in1004.7 mb 0.01 in0.3 mm 0.00 in0.0 mm 0.32 in8.1 mm
07:19 AM 44.1°F6.7°C 41.0°F5.0°C 89% Calm Calm 2.0 mph3.2 kmh 29.68 in1005.1 mb 0.01 in0.3 mm 0.00 in0.0 mm 0.32 in8.1 mm
07:14 AM 44.1°F6.7°C 41.0°F5.0°C 89% Calm Calm 2.0 mph3.2 kmh 29.68 in1005.1 mb 0.01 in0.3 mm 0.00 in0.0 mm 0.32 in8.1 mm
07:09 AM 44.1°F6.7°C 41.0°F5.0°C 89% Calm Calm -- 29.68 in1005.1 mb 0.02 in0.5 mm 0.00 in0.0 mm 0.32 in8.1 mm
07:03 AM 44.1°F6.7°C 41.0°F5.0°C 89% Calm Calm -- 29.69 in1005.4 mb 0.02 in0.5 mm 0.00 in0.0 mm 0.32 in8.1 mm
06:58 AM 44.1°F6.7°C 41.0°F5.0°C 89% Calm Calm 0.9 mph1.4 kmh 29.68 in1005.1 mb 0.02 in0.5 mm 0.00 in0.0 mm 0.32 in8.1 mm
06:53 AM 44.1°F6.7°C 41.0°F5.0°C 89% Calm Calm 0.9 mph1.4 kmh 29.68 in1005.1 mb 0.02 in0.5 mm 0.00 in0.0 mm 0.32 in8.1 mm
06:48 AM 44.1°F6.7°C 41.0°F5.0°C 89% 0.9 mph S1.4 kmh S 0.9 mph1.4 kmh 29.69 in1005.4 mb 0.02 in0.5 mm 0.12 in3.0 mm 0.32 in8.1 mm
06:43 AM 44.2°F6.8°C 41.2°F5.1°C 89% 0.9 mph SW1.4 kmh SW 2.0 mph3.2 kmh 29.69 in1005.4 mb 0.01 in0.3 mm 0.00 in0.0 mm 0.31 in7.9 mm
06:38 AM 44.2°F6.8°C 41.2°F5.1°C 89% Calm Calm 2.0 mph3.2 kmh 29.69 in1005.4 mb 0.01 in0.3 mm 0.00 in0.0 mm 0.31 in7.9 mm
06:33 AM 44.1°F6.7°C 41.0°F5.0°C 89% 0.9 mph S1.4 kmh S 2.0 mph3.2 kmh 29.69 in1005.4 mb 0.01 in0.3 mm 0.00 in0.0 mm 0.31 in7.9 mm
06:28 AM 44.1°F6.7°C 41.0°F5.0°C 89% Calm Calm 0.9 mph1.4 kmh 29.69 in1005.4 mb 0.01 in0.3 mm 0.00 in0.0 mm 0.31 in7.9 mm
06:23 AM 43.9°F6.6°C 40.8°F4.9°C 89% Calm Calm -- 29.69 in1005.4 mb 0.02 in0.5 mm 0.00 in0.0 mm 0.31 in7.9 mm
06:18 AM 43.9°F6.6°C 40.8°F4.9°C 89% Calm Calm -- 29.69 in1005.4 mb 0.02 in0.5 mm 0.00 in0.0 mm 0.31 in7.9 mm
06:13 AM 43.9°F6.6°C 40.8°F4.9°C 89% Calm Calm 2.0 mph3.2 kmh 29.69 in1005.4 mb 0.02 in0.5 mm 0.12 in3.0 mm 0.31 in7.9 mm
06:08 AM 44.1°F6.7°C 41.0°F5.0°C 89% 0.9 mph S1.4 kmh S 0.9 mph1.4 kmh 29.69 in1005.4 mb 0.01 in0.3 mm 0.00 in0.0 mm 0.30 in7.6 mm
06:03 AM 44.1°F6.7°C 41.0°F5.0°C 89% Calm Calm 0.9 mph1.4 kmh 29.69 in1005.4 mb 0.01 in0.3 mm 0.00 in0.0 mm 0.30 in7.6 mm
05:58 AM 43.9°F6.6°C 40.8°F4.9°C 89% Calm Calm 0.9 mph1.4 kmh 29.69 in1005.4 mb 0.02 in0.5 mm 0.00 in0.0 mm 0.30 in7.6 mm
05:53 AM 43.9°F6.6°C 40.8°F4.9°C 89% 0.9 mph S1.4 kmh S 2.0 mph3.2 kmh 29.70 in1005.8 mb 0.02 in0.5 mm 0.00 in0.0 mm 0.30 in7.6 mm
05:48 AM 43.7°F6.5°C 40.6°F4.8°C 89% 0.9 mph S1.4 kmh S 2.0 mph3.2 kmh 29.70 in1005.8 mb 0.02 in0.5 mm 0.00 in0.0 mm 0.30 in7.6 mm
05:43 AM 43.7°F6.5°C 40.6°F4.8°C 89% Calm Calm 2.0 mph3.2 kmh 29.70 in1005.8 mb 0.02 in0.5 mm 0.00 in0.0 mm 0.30 in7.6 mm
05:38 AM 43.7°F6.5°C 40.6°F4.8°C 89% Calm Calm -- 29.70 in1005.8 mb 0.02 in0.5 mm 0.00 in0.0 mm 0.30 in7.6 mm
05:33 AM 43.9°F6.6°C 40.8°F4.9°C 89% Calm Calm -- 29.71 in1006.1 mb 0.03 in0.8 mm 0.00 in0.0 mm 0.30 in7.6 mm
05:28 AM 43.7°F6.5°C 40.6°F4.8°C 89% Calm Calm 0.9 mph1.4 kmh 29.70 in1005.8 mb 0.04 in1.0 mm 0.12 in3.0 mm 0.30 in7.6 mm
05:23 AM 43.7°F6.5°C 40.6°F4.8°C 89% Calm Calm 1.0 mph1.6 kmh 29.70 in1005.8 mb 0.03 in0.8 mm 0.00 in0.0 mm 0.29 in7.4 mm
05:18 AM 43.7°F6.5°C 40.6°F4.8°C 89% Calm Calm -- 29.70 in1005.8 mb 0.04 in1.0 mm 0.00 in0.0 mm 0.29 in7.4 mm
05:13 AM 43.7°F6.5°C 40.6°F4.8°C 89% Calm Calm 2.0 mph3.2 kmh 29.71 in1006.1 mb 0.04 in1.0 mm 0.00 in0.0 mm 0.29 in7.4 mm
05:08 AM 43.7°F6.5°C 40.6°F4.8°C 89% Calm Calm 0.9 mph1.4 kmh 29.70 in1005.8 mb 0.05 in1.3 mm 0.00 in0.0 mm 0.29 in7.4 mm
05:03 AM 43.9°F6.6°C 40.8°F4.9°C 89% Calm Calm 0.9 mph1.4 kmh 29.70 in1005.8 mb 0.05 in1.3 mm 0.00 in0.0 mm 0.29 in7.4 mm
04:58 AM 43.7°F6.5°C 40.6°F4.8°C 89% Calm Calm -- 29.70 in1005.8 mb 0.05 in1.3 mm 0.00 in0.0 mm 0.28 in7.1 mm
04:53 AM 43.9°F6.6°C 40.8°F4.9°C 89% Calm Calm 0.9 mph1.4 kmh 29.70 in1005.8 mb 0.06 in1.5 mm 0.00 in0.0 mm 0.28 in7.1 mm
04:48 AM 43.9°F6.6°C 40.8°F4.9°C 89% 0.9 mph SW1.4 kmh SW 2.0 mph3.2 kmh 29.70 in1005.8 mb 0.06 in1.5 mm 0.00 in0.0 mm 0.28 in7.1 mm
04:43 AM 43.9°F6.6°C 40.8°F4.9°C 89% Calm Calm 2.0 mph3.2 kmh 29.70 in1005.8 mb 0.07 in1.8 mm 0.00 in0.0 mm 0.28 in7.1 mm
04:38 AM 44.1°F6.7°C 41.0°F5.0°C 89% Calm Calm 1.0 mph1.6 kmh 29.70 in1005.8 mb 0.08 in2.0 mm 0.12 in3.0 mm 0.28 in7.1 mm
04:33 AM 44.1°F6.7°C 41.0°F5.0°C 89% Calm Calm 0.9 mph1.4 kmh 29.71 in1006.1 mb 0.07 in1.8 mm 0.00 in0.0 mm 0.27 in6.9 mm
04:28 AM 44.1°F6.7°C 41.0°F5.0°C 89% Calm Calm 0.9 mph1.4 kmh 29.72 in1006.4 mb 0.07 in1.8 mm 0.00 in0.0 mm 0.26 in6.6 mm
04:23 AM 44.1°F6.7°C 41.0°F5.0°C 89% Calm Calm 0.9 mph1.4 kmh 29.72 in1006.4 mb 0.07 in1.8 mm 0.00 in0.0 mm 0.26 in6.6 mm
04:18 AM 44.1°F6.7°C 41.0°F5.0°C 89% Calm Calm 0.9 mph1.4 kmh 29.72 in1006.4 mb 0.07 in1.8 mm 0.00 in0.0 mm 0.25 in6.4 mm
04:13 AM 44.1°F6.7°C 41.0°F5.0°C 89% Calm Calm -- 29.73 in1006.8 mb 0.07 in1.8 mm 0.12 in3.0 mm 0.25 in6.4 mm
04:08 AM 44.1°F6.7°C 41.0°F5.0°C 89% Calm Calm 0.9 mph1.4 kmh 29.73 in1006.8 mb 0.06 in1.5 mm 0.00 in0.0 mm 0.24 in6.1 mm
04:03 AM 44.1°F6.7°C 41.0°F5.0°C 89% Calm Calm -- 29.74 in1007.1 mb 0.07 in1.8 mm 0.01 in0.3 mm 0.24 in6.1 mm
03:58 AM 44.1°F6.7°C 41.0°F5.0°C 89% Calm Calm 1.0 mph1.6 kmh 29.74 in1007.1 mb 0.06 in1.5 mm 0.00 in0.0 mm 0.23 in5.8 mm
03:53 AM 44.1°F6.7°C 41.0°F5.0°C 89% Calm Calm -- 29.74 in1007.1 mb 0.06 in1.5 mm 0.00 in0.0 mm 0.22 in5.6 mm
03:48 AM 44.1°F6.7°C 41.0°F5.0°C 89% Calm Calm 0.9 mph1.4 kmh 29.74 in1007.1 mb 0.06 in1.5 mm 0.00 in0.0 mm 0.22 in5.6 mm
03:42 AM 44.1°F6.7°C 41.0°F5.0°C 89% 0.9 mph SW1.4 kmh SW 2.0 mph3.2 kmh 29.75 in1007.5 mb 0.06 in1.5 mm 0.00 in0.0 mm 0.21 in5.3 mm
03:37 AM 43.9°F6.6°C 40.8°F4.9°C 89% Calm Calm 2.0 mph3.2 kmh 29.74 in1007.1 mb 0.06 in1.5 mm 0.00 in0.0 mm 0.20 in5.1 mm
03:32 AM 43.9°F6.6°C 40.8°F4.9°C 89% Calm Calm 2.0 mph3.2 kmh 29.74 in1007.1 mb 0.06 in1.5 mm 0.00 in0.0 mm 0.20 in5.1 mm
03:27 AM 43.9°F6.6°C 40.8°F4.9°C 89% Calm Calm 0.9 mph1.4 kmh 29.74 in1007.1 mb 0.06 in1.5 mm 0.00 in0.0 mm 0.19 in4.8 mm
03:22 AM 43.9°F6.6°C 40.8°F4.9°C 89% 0.9 mph SW1.4 kmh SW 2.9 mph4.7 kmh 29.74 in1007.1 mb 0.06 in1.5 mm 0.00 in0.0 mm 0.19 in4.8 mm
03:17 AM 44.1°F6.7°C 41.0°F5.0°C 89% 0.9 mph SW1.4 kmh SW 2.9 mph4.7 kmh 29.75 in1007.5 mb 0.06 in1.5 mm 0.00 in0.0 mm 0.18 in4.6 mm
03:12 AM 44.1°F6.7°C 41.0°F5.0°C 89% Calm Calm 0.9 mph1.4 kmh 29.75 in1007.5 mb 0.07 in1.8 mm 0.00 in0.0 mm 0.18 in4.6 mm
03:07 AM 44.1°F6.7°C 41.0°F5.0°C 89% Calm Calm 0.9 mph1.4 kmh 29.75 in1007.5 mb 0.08 in2.0 mm 0.00 in0.0 mm 0.18 in4.6 mm
03:02 AM 44.1°F6.7°C 41.0°F5.0°C 89% Calm Calm 0.9 mph1.4 kmh 29.75 in1007.5 mb 0.08 in2.0 mm 0.00 in0.0 mm 0.17 in4.3 mm
02:57 AM 44.1°F6.7°C 41.0°F5.0°C 89% 0.9 mph S1.4 kmh S 2.0 mph3.2 kmh 29.75 in1007.5 mb 0.09 in2.3 mm 0.00 in0.0 mm 0.17 in4.3 mm
02:52 AM 44.1°F6.7°C 41.0°F5.0°C 89% Calm Calm 2.0 mph3.2 kmh 29.75 in1007.5 mb 0.09 in2.3 mm 0.00 in0.0 mm 0.16 in4.1 mm
02:47 AM 44.1°F6.7°C 41.0°F5.0°C 89% Calm Calm -- 29.75 in1007.5 mb 0.10 in2.5 mm 0.00 in0.0 mm 0.16 in4.1 mm
02:42 AM 44.1°F6.7°C 41.0°F5.0°C 89% Calm Calm -- 29.75 in1007.5 mb 0.10 in2.5 mm 0.00 in0.0 mm 0.15 in3.8 mm
02:37 AM 44.1°F6.7°C 41.0°F5.0°C 89% Calm Calm 0.9 mph1.4 kmh 29.75 in1007.5 mb 0.10 in2.5 mm 0.00 in0.0 mm 0.14 in3.6 mm
02:32 AM 44.1°F6.7°C 41.0°F5.0°C 89% Calm Calm -- 29.76 in1007.8 mb 0.10 in2.5 mm 0.12 in3.0 mm 0.14 in3.6 mm
02:27 AM 44.1°F6.7°C 41.0°F5.0°C 89% Calm Calm 2.0 mph3.2 kmh 29.75 in1007.5 mb 0.09 in2.3 mm 0.00 in0.0 mm 0.13 in3.3 mm
02:22 AM 43.9°F6.6°C 40.8°F4.9°C 89% Calm Calm -- 29.76 in1007.8 mb 0.10 in2.5 mm 0.12 in3.0 mm 0.13 in3.3 mm
02:17 AM 43.9°F6.6°C 40.8°F4.9°C 89% Calm Calm 0.9 mph1.4 kmh 29.76 in1007.8 mb 0.09 in2.3 mm 0.12 in3.0 mm 0.12 in3.0 mm
02:12 AM 43.9°F6.6°C 40.6°F4.8°C 88% Calm Calm 0.9 mph1.4 kmh 29.76 in1007.8 mb 0.08 in2.0 mm 0.12 in3.0 mm 0.11 in2.8 mm
02:07 AM 43.9°F6.6°C 40.6°F4.8°C 88% Calm Calm 0.9 mph1.4 kmh 29.77 in1008.1 mb 0.07 in1.8 mm 0.00 in0.0 mm 0.10 in2.5 mm
02:02 AM 44.1°F6.7°C 41.0°F5.0°C 89% Calm Calm 3.0 mph4.8 kmh 29.76 in1007.8 mb 0.07 in1.8 mm 0.01 in0.3 mm 0.09 in2.3 mm
01:57 AM 44.1°F6.7°C 41.0°F5.0°C 89% Calm Calm -- 29.76 in1007.8 mb 0.06 in1.5 mm 0.12 in3.0 mm 0.08 in2.0 mm
01:52 AM 44.1°F6.7°C 41.0°F5.0°C 89% Calm Calm -- 29.76 in1007.8 mb 0.05 in1.3 mm 0.12 in3.0 mm 0.07 in1.8 mm
01:47 AM 44.1°F6.7°C 41.0°F5.0°C 89% Calm Calm -- 29.77 in1008.1 mb 0.04 in1.0 mm 0.00 in0.0 mm 0.06 in1.5 mm
01:42 AM 43.9°F6.6°C 40.8°F4.9°C 89% Calm Calm -- 29.76 in1007.8 mb 0.04 in1.0 mm 0.12 in3.0 mm 0.05 in1.3 mm
01:37 AM 43.7°F6.5°C 40.6°F4.8°C 89% Calm Calm -- 29.77 in1008.1 mb 0.03 in0.8 mm 0.00 in0.0 mm 0.04 in1.0 mm
01:32 AM 43.5°F6.4°C 40.3°F4.6°C 88% Calm Calm -- 29.77 in1008.1 mb 0.03 in0.8 mm 0.00 in0.0 mm 0.04 in1.0 mm
01:27 AM 43.5°F6.4°C 40.3°F4.6°C 88% Calm Calm -- 29.77 in1008.1 mb 0.03 in0.8 mm 0.00 in0.0 mm 0.04 in1.0 mm
01:22 AM 43.3°F6.3°C 40.1°F4.5°C 88% Calm Calm 0.9 mph1.4 kmh 29.77 in1008.1 mb 0.03 in0.8 mm 0.00 in0.0 mm 0.03 in0.8 mm
01:17 AM 43.3°F6.3°C 40.1°F4.5°C 88% Calm Calm 2.0 mph3.2 kmh 29.77 in1008.1 mb 0.03 in0.8 mm 0.00 in0.0 mm 0.03 in0.8 mm
01:12 AM 43.3°F6.3°C 40.1°F4.5°C 88% Calm Calm 0.9 mph1.4 kmh 29.77 in1008.1 mb 0.03 in0.8 mm 0.00 in0.0 mm 0.03 in0.8 mm
01:07 AM 43.3°F6.3°C 40.1°F4.5°C 88% Calm Calm 0.9 mph1.4 kmh 29.78 in1008.5 mb 0.03 in0.8 mm 0.12 in3.0 mm 0.03 in0.8 mm
01:02 AM 43.3°F6.3°C 40.1°F4.5°C 88% Calm Calm 0.9 mph1.4 kmh 29.78 in1008.5 mb 0.02 in0.5 mm 0.00 in0.0 mm 0.02 in0.5 mm
12:56 AM 43.3°F6.3°C 40.1°F4.5°C 88% Calm Calm 2.9 mph4.7 kmh 29.78 in1008.5 mb 0.02 in0.5 mm 0.00 in0.0 mm 0.02 in0.5 mm
12:51 AM 43.3°F6.3°C 40.1°F4.5°C 88% 0.9 mph E1.4 kmh E 2.9 mph4.7 kmh 29.78 in1008.5 mb 0.02 in0.5 mm 0.00 in0.0 mm 0.02 in0.5 mm
12:46 AM 43.3°F6.3°C 40.1°F4.5°C 88% 0.9 mph E1.4 kmh E 2.0 mph3.2 kmh 29.79 in1008.8 mb 0.02 in0.5 mm 0.00 in0.0 mm 0.02 in0.5 mm
12:41 AM 43.3°F6.3°C 40.1°F4.5°C 88% Calm Calm 2.0 mph3.2 kmh 29.79 in1008.8 mb 0.02 in0.5 mm 0.00 in0.0 mm 0.01 in0.3 mm
12:36 AM 43.3°F6.3°C 40.1°F4.5°C 88% Calm Calm 0.9 mph1.4 kmh 29.79 in1008.8 mb 0.03 in0.8 mm 0.00 in0.0 mm 0.01 in0.3 mm
12:31 AM 43.5°F6.4°C 40.3°F4.6°C 88% 0.9 mph E1.4 kmh E 2.9 mph4.7 kmh 29.79 in1008.8 mb 0.03 in0.8 mm 0.00 in0.0 mm 0.01 in0.3 mm
12:26 AM 43.5°F6.4°C 40.3°F4.6°C 88% 0.9 mph E1.4 kmh E 2.9 mph4.7 kmh 29.79 in1008.8 mb 0.03 in0.8 mm 0.00 in0.0 mm 0.01 in0.3 mm
12:21 AM 43.5°F6.4°C 40.3°F4.6°C 88% 0.9 mph ENE1.4 kmh ENE 4.0 mph6.4 kmh 29.79 in1008.8 mb 0.03 in0.8 mm 0.00 in0.0 mm 0.06 in1.5 mm
12:16 AM 43.5°F6.4°C 40.3°F4.6°C 88% 0.9 mph ESE1.4 kmh ESE 4.0 mph6.4 kmh 29.79 in1008.8 mb 0.04 in1.0 mm 0.00 in0.0 mm 0.06 in1.5 mm
12:11 AM 43.5°F6.4°C 40.3°F4.6°C 88% 2.0 mph NE3.2 kmh NE 2.9 mph4.7 kmh 29.79 in1008.8 mb 0.05 in1.3 mm 0.00 in0.0 mm 0.06 in1.5 mm
12:06 AM 43.3°F6.3°C 40.1°F4.5°C 88% 2.9 mph E4.7 kmh E 6.0 mph9.7 kmh 29.79 in1008.8 mb 0.05 in1.3 mm 0.00 in0.0 mm 0.06 in1.5 mm
12:01 AM 43.3°F6.3°C 40.1°F4.5°C 88% 2.0 mph E3.2 kmh E 6.0 mph9.7 kmh 29.79 in1008.8 mb 0.06 in1.5 mm 3.60 in91.4 mm 0.06 in1.5 mm